Time;durP1;ratioP1;P1;durP2;ratioP2;P2;SDS_P1;SDS_P2;PMS_P1;PMS_P2;Temp;Humidity;BMP_temperature;BMP_pressure;BME280_temperature;BME280_humidity;BME280_pressure;Samples;Min_cycle;Max_cycle;Signal;HPM_P1;HPM_P2
2022/04/17 00:00:06;;;;;;;;;;;;;;;;;;1288564;23;1893;-46
2022/04/17 00:00:37;;;;;;;;;;;;;;;;;;1288675;23;945;-44
2022/04/17 00:01:07;;;;;;;;;;;;;;;;;;1288221;23;830;-45
2022/04/17 00:01:42;;;;;;;;;;;;;;;;;;1288628;23;873;-44
2022/04/17 00:02:12;;;;;;;;;;;;;;;;;;1281703;23;960;-44
2022/04/17 00:02:43;;;;;;;;;;;;;;;;;;1282164;23;892;-44
2022/04/17 00:03:13;;;;;;;;;;;;;;;;;;1281828;23;849;-44
2022/04/17 00:03:44;;;;;;;;;;;;;;;;;;1283397;23;939;-44
2022/04/17 00:04:15;;;;;;;;;;;;;;;;;;1288539;23;837;-44
2022/04/17 00:04:46;;;;;;;;;;;;;;;;;;1288552;23;857;-44
2022/04/17 00:05:16;;;;;;;;;;;;;;;;;;1288532;23;936;-45
2022/04/17 00:05:46;;;;;;;;;;;;;;;;;;1288877;23;803;-45
2022/04/17 00:06:17;;;;;;;;;;;;;;;;;;1288443;23;913;-45
2022/04/17 00:06:47;;;;;;;;;;;;;;;;;;1288845;23;972;-42
2022/04/17 00:07:17;;;;;;;;;;;;;;;;;;1288508;23;882;-44
2022/04/17 00:07:48;;;;;;;;;;;;;;;;;;1288696;23;806;-45
2022/04/17 00:08:21;;;;;;;;;;;;;;;;;;1288609;23;872;-44
2022/04/17 00:08:52;;;;;;;;;;;;;;;;;;1281591;23;1245;-44
2022/04/17 00:09:22;;;;;;;;;;;;;;;;;;1281798;23;837;-44
2022/04/17 00:09:53;;;;;;;;;;;;;;;;;;1281934;23;916;-44
2022/04/17 00:10:23;;;;;;;;;;;;;;;;;;1281999;23;977;-44
2022/04/17 00:10:53;;;;;;;;;;;;;;;;;;1288808;23;905;-44
2022/04/17 00:11:24;;;;;;;;;;;;;;;;;;1288390;23;1071;-44
2022/04/17 00:11:54;;;;;;;;;;;;;;;;;;1288708;23;813;-44
2022/04/17 00:12:27;;;;;;;;;;;;;;;;;;1288557;23;929;-44
2022/04/17 00:12:58;;;;;;;;;;;;;;;;;;1288463;23;984;-45
2022/04/17 00:13:28;;;;;;;;;;;;;;;;;;1289023;23;830;-44
2022/04/17 00:14:01;;;;;;;;;;;;;;;;;;1288475;23;921;-44
2022/04/17 00:14:32;;;;;;;;;;;;;;;;;;1282112;23;971;-46
2022/04/17 00:15:03;;;;;;;;;;;;;;;;;;1281667;23;810;-42
2022/04/17 00:15:33;;;;;;;;;;;;;;;;;;1282081;23;869;-43
2022/04/17 00:16:04;;;;;;;;;;;;;;;;;;1282499;23;837;-44
2022/04/17 00:16:34;;;;;;;;;;;;;;;;;;1288510;23;802;-44
2022/04/17 00:17:04;;;;;;;;;;;;;;;;;;1288433;23;908;-44
2022/04/17 00:17:37;;;;;;;;;;;;;;;;;;1288658;23;882;-45
2022/04/17 00:18:08;;;;;;;;;;;;;;;;;;1288686;23;882;-45
2022/04/17 00:18:39;;;;;;;;;;;;;;;;;;1288616;23;913;-44
2022/04/17 00:19:09;;;;;;;;;;;;;;;;;;1288684;23;928;-44
2022/04/17 00:19:40;;;;;;;;;;;;;;;;;;1288690;23;866;-44
2022/04/17 00:20:14;;;;;;;;;;;;;;;;;;1288605;23;1948;-44
2022/04/17 00:20:44;;;;;;;;;;;;;;;;;;1288729;23;837;-44
2022/04/17 00:21:15;;;;;;;;;;;;;;;;;;1288527;23;814;-43
2022/04/17 00:21:46;;;;;;;;;;;;;;;;;;1288740;23;948;-44
2022/04/17 00:22:20;;;;;;;;;;;;;;;;;;1288394;23;905;-45
2022/04/17 00:22:50;;;;;;;;;;;;;;;;;;1288822;23;830;-43
2022/04/17 00:23:20;;;;;;;;;;;;;;;;;;1287921;23;929;-44
2022/04/17 00:23:51;;;;;;;;;;;;;;;;;;1289029;23;797;-46
2022/04/17 00:24:21;;;;;;;;;;;;;;;;;;1288322;23;904;-44
2022/04/17 00:24:52;;;;;;;;;;;;;;;;;;1288495;23;967;-44
2022/04/17 00:25:22;;;;;;;;;;;;;;;;;;1288720;23;1055;-44
2022/04/17 00:25:53;;;;;;;;;;;;;;;;;;1288600;23;873;-45
2022/04/17 00:26:23;;;;;;;;;;;;;;;;;;1288554;23;1321;-44
2022/04/17 00:26:53;;;;;;;;;;;;;;;;;;1288698;23;975;-44
2022/04/17 00:27:26;;;;;;;;;;;;;;;;;;1288536;23;873;-45
2022/04/17 00:27:56;;;;;;;;;;;;;;;;;;1282087;23;1207;-44
2022/04/17 00:28:28;;;;;;;;;;;;;;;;;;1282168;23;912;-44
2022/04/17 00:28:58;;;;;;;;;;;;;;;;;;1281881;23;1000;-43
2022/04/17 00:29:29;;;;;;;;;;;;;;;;;;1276618;23;952;-45
2022/04/17 00:30:05;;;;;;;;;;;;;;;;;;1275585;23;810;-44
2022/04/17 00:30:35;;;;;;;;;;;;;;;;;;1275790;23;929;-44
2022/04/17 00:31:06;;;;;;;;;;;;;;;;;;1276434;23;806;-44
2022/04/17 00:31:36;;;;;;;;;;;;;;;;;;1283263;23;1139;-44
2022/04/17 00:32:07;;;;;;;;;;;;;;;;;;1288691;23;898;-44
2022/04/17 00:32:37;;;;;;;;;;;;;;;;;;1288375;23;916;-44
2022/04/17 00:33:08;;;;;;;;;;;;;;;;;;1288784;23;1038;-42
2022/04/17 00:33:38;;;;;;;;;;;;;;;;;;1288542;23;893;-44
2022/04/17 00:34:08;;;;;;;;;;;;;;;;;;1288638;23;798;-43
2022/04/17 00:34:39;;;;;;;;;;;;;;;;;;1288509;23;766;-44
2022/04/17 00:35:10;;;;;;;;;;;;;;;;;;1288626;23;884;-48
2022/04/17 00:35:41;;;;;;;;;;;;;;;;;;1288794;23;923;-44
2022/04/17 00:36:11;;;;;;;;;;;;;;;;;;1288654;23;797;-44
2022/04/17 00:36:41;;;;;;;;;;;;;;;;;;1288576;23;785;-44
2022/04/17 00:37:12;;;;;;;;;;;;;;;;;;1288050;23;917;-44
2022/04/17 00:37:43;;;;;;;;;;;;;;;;;;1288687;23;876;-43
2022/04/17 00:38:13;;;;;;;;;;;;;;;;;;1288027;23;948;-44
2022/04/17 00:38:43;;;;;;;;;;;;;;;;;;1288881;23;805;-44
2022/04/17 00:39:14;;;;;;;;;;;;;;;;;;1288153;23;1196;-44
2022/04/17 00:39:44;;;;;;;;;;;;;;;;;;1288705;23;928;-44
2022/04/17 00:40:15;;;;;;;;;;;;;;;;;;1288293;23;1893;-44
2022/04/17 00:40:45;;;;;;;;;;;;;;;;;;1288775;23;841;-44
2022/04/17 00:41:15;;;;;;;;;;;;;;;;;;1288570;23;916;-45
2022/04/17 00:41:48;;;;;;;;;;;;;;;;;;1282038;23;651;-44
2022/04/17 00:42:19;;;;;;;;;;;;;;;;;;1281890;23;877;-44
2022/04/17 00:42:49;;;;;;;;;;;;;;;;;;1282109;23;869;-44
2022/04/17 00:43:30;;;;;;;;;;;;;;;;;;1282488;23;1098;-41
2022/04/17 00:44:00;;;;;;;;;;;;;;;;;;1288584;23;905;-44
2022/04/17 00:44:31;;;;;;;;;;;;;;;;;;1288697;23;813;-44
2022/04/17 00:45:01;;;;;;;;;;;;;;;;;;1288254;23;833;-44
2022/04/17 00:45:31;;;;;;;;;;;;;;;;;;1288464;23;896;-44
2022/04/17 00:46:02;;;;;;;;;;;;;;;;;;1281453;23;742;-44
2022/04/17 00:46:32;;;;;;;;;;;;;;;;;;1282116;23;873;-44
2022/04/17 00:47:03;;;;;;;;;;;;;;;;;;1281638;23;880;-45
2022/04/17 00:47:35;;;;;;;;;;;;;;;;;;1282296;23;790;-43
2022/04/17 00:48:05;;;;;;;;;;;;;;;;;;1288468;23;916;-44
2022/04/17 00:48:35;;;;;;;;;;;;;;;;;;1288608;23;806;-44
2022/04/17 00:49:06;;;;;;;;;;;;;;;;;;1288437;23;1065;-43
2022/04/17 00:49:36;;;;;;;;;;;;;;;;;;1288397;23;877;-44
2022/04/17 00:50:07;;;;;;;;;;;;;;;;;;1288625;23;797;-44
2022/04/17 00:50:37;;;;;;;;;;;;;;;;;;1288474;23;876;-45
2022/04/17 00:51:08;;;;;;;;;;;;;;;;;;1288547;23;954;-43
2022/04/17 00:51:41;;;;;;;;;;;;;;;;;;1288655;23;897;-44
2022/04/17 00:52:12;;;;;;;;;;;;;;;;;;1288328;23;992;-43
2022/04/17 00:52:43;;;;;;;;;;;;;;;;;;1288654;23;1131;-44
2022/04/17 00:53:13;;;;;;;;;;;;;;;;;;1287954;22;1274;-44
2022/04/17 00:53:46;;;;;;;;;;;;;;;;;;1288308;23;944;-45
2022/04/17 00:54:17;;;;;;;;;;;;;;;;;;1288393;23;793;-44
2022/04/17 00:54:49;;;;;;;;;;;;;;;;;;1288602;23;786;-44
2022/04/17 00:55:19;;;;;;;;;;;;;;;;;;1288324;23;920;-47
2022/04/17 00:55:50;;;;;;;;;;;;;;;;;;1288948;23;885;-44
2022/04/17 00:56:21;;;;;;;;;;;;;;;;;;1281482;23;1037;-44
2022/04/17 00:56:52;;;;;;;;;;;;;;;;;;1282113;23;893;-44
2022/04/17 00:57:22;;;;;;;;;;;;;;;;;;1281870;23;996;-44
2022/04/17 00:57:55;;;;;;;;;;;;;;;;;;1282068;23;786;-44
2022/04/17 00:58:26;;;;;;;;;;;;;;;;;;1288387;23;897;-44
2022/04/17 00:59:04;;;;;;;;;;;;;;;;;;1288478;23;874;-45
2022/04/17 00:59:35;;;;;;;;;;;;;;;;;;1288575;23;965;-44
2022/04/17 01:00:05;;;;;;;;;;;;;;;;;;1288283;23;1892;-43
2022/04/17 01:00:36;;;;;;;;;;;;;;;;;;1288166;23;968;-44
2022/04/17 01:01:06;;;;;;;;;;;;;;;;;;1288584;23;837;-44
2022/04/17 01:01:37;;;;;;;;;;;;;;;;;;1288645;23;924;-44
2022/04/17 01:02:11;;;;;;;;;;;;;;;;;;1288569;23;806;-50
2022/04/17 01:02:44;;;;;;;;;;;;;;;;;;1288767;23;805;-44
2022/04/17 01:03:14;;;;;;;;;;;;;;;;;;1288297;23;960;-44
2022/04/17 01:03:45;;;;;;;;;;;;;;;;;;1288853;23;802;-44
2022/04/17 01:04:15;;;;;;;;;;;;;;;;;;1288200;23;960;-44
2022/04/17 01:04:45;;;;;;;;;;;;;;;;;;1288779;23;611;-44
2022/04/17 01:05:19;;;;;;;;;;;;;;;;;;1288362;23;889;-44
2022/04/17 01:05:52;;;;;;;;;;;;;;;;;;1288685;23;836;-44
2022/04/17 01:06:23;;;;;;;;;;;;;;;;;;1288466;23;885;-46
2022/04/17 01:06:53;;;;;;;;;;;;;;;;;;1288648;23;920;-43
2022/04/17 01:07:24;;;;;;;;;;;;;;;;;;1288414;23;817;-44
2022/04/17 01:07:54;;;;;;;;;;;;;;;;;;1281624;23;1407;-44
2022/04/17 01:08:24;;;;;;;;;;;;;;;;;;1281526;23;877;-44
2022/04/17 01:08:55;;;;;;;;;;;;;;;;;;1281848;23;880;-44
2022/04/17 01:09:26;;;;;;;;;;;;;;;;;;1281741;23;966;-44
2022/04/17 01:09:56;;;;;;;;;;;;;;;;;;1288841;23;833;-44
2022/04/17 01:10:27;;;;;;;;;;;;;;;;;;1288637;23;928;-42
2022/04/17 01:10:58;;;;;;;;;;;;;;;;;;1288305;23;800;-43
2022/04/17 01:11:28;;;;;;;;;;;;;;;;;;1288772;23;944;-45
2022/04/17 01:11:59;;;;;;;;;;;;;;;;;;1288506;23;783;-44
2022/04/17 01:12:29;;;;;;;;;;;;;;;;;;1288703;23;869;-44
2022/04/17 01:13:01;;;;;;;;;;;;;;;;;;1288288;23;986;-44
2022/04/17 01:13:32;;;;;;;;;;;;;;;;;;1288604;23;959;-44
2022/04/17 01:14:04;;;;;;;;;;;;;;;;;;1288313;23;869;-44
2022/04/17 01:14:38;;;;;;;;;;;;;;;;;;1288684;23;971;-46
2022/04/17 01:15:10;;;;;;;;;;;;;;;;;;1286630;23;975;-45
2022/04/17 01:15:40;;;;;;;;;;;;;;;;;;1288675;23;969;-44
2022/04/17 01:16:11;;;;;;;;;;;;;;;;;;1288295;23;821;-44
2022/04/17 01:16:41;;;;;;;;;;;;;;;;;;1288897;23;888;-45
2022/04/17 01:17:12;;;;;;;;;;;;;;;;;;1288322;23;889;-44
2022/04/17 01:17:42;;;;;;;;;;;;;;;;;;1288797;23;901;-44
2022/04/17 01:18:13;;;;;;;;;;;;;;;;;;1288415;23;786;-45
2022/04/17 01:18:52;;;;;;;;;;;;;;;;;;1288668;23;793;-43
2022/04/17 01:19:27;;;;;;;;;;;;;;;;;;1288301;23;877;-44
2022/04/17 01:20:03;;;;;;;;;;;;;;;;;;1288675;23;869;-45
2022/04/17 01:20:36;;;;;;;;;;;;;;;;;;1288488;23;885;-44
2022/04/17 01:21:08;;;;;;;;;;;;;;;;;;1288194;23;774;-45
2022/04/17 01:21:42;;;;;;;;;;;;;;;;;;1288836;23;814;-44
2022/04/17 01:22:12;;;;;;;;;;;;;;;;;;1288111;23;987;-44
2022/04/17 01:26:55;;;;;;;;;;;;;;;;;;1288403;23;1008;-44
2022/04/17 01:27:03;;;;;;;;;;;;;;;;;;1288545;23;821;-45
2022/04/17 01:27:34;;;;;;;;;;;;;;;;;;1288797;23;797;-44
2022/04/17 01:28:05;;;;;;;;;;;;;;;;;;1288303;23;1019;-45
2022/04/17 01:28:36;;;;;;;;;;;;;;;;;;1288568;23;806;-43
2022/04/17 01:29:06;;;;;;;;;;;;;;;;;;1288256;23;900;-43
2022/04/17 01:29:38;;;;;;;;;;;;;;;;;;1288763;23;904;-45
2022/04/17 01:30:10;;;;;;;;;;;;;;;;;;1287627;23;960;-43
2022/04/17 01:30:40;;;;;;;;;;;;;;;;;;1288824;23;794;-42
2022/04/17 01:31:10;;;;;;;;;;;;;;;;;;1288187;23;912;-42
2022/04/17 01:31:44;;;;;;;;;;;;;;;;;;1288836;23;806;-43
2022/04/17 01:32:15;;;;;;;;;;;;;;;;;;1288116;23;885;-44
2022/04/17 01:32:45;;;;;;;;;;;;;;;;;;1288509;23;889;-45
2022/04/17 01:33:15;;;;;;;;;;;;;;;;;;1288467;23;916;-43
2022/04/17 01:33:46;;;;;;;;;;;;;;;;;;1288656;23;968;-44
2022/04/17 01:34:17;;;;;;;;;;;;;;;;;;1288354;23;972;-44
2022/04/17 01:34:47;;;;;;;;;;;;;;;;;;1288657;23;806;-44
2022/04/17 01:35:18;;;;;;;;;;;;;;;;;;1288266;23;889;-44
2022/04/17 01:35:48;;;;;;;;;;;;;;;;;;1288676;23;890;-44
2022/04/17 01:36:19;;;;;;;;;;;;;;;;;;1288388;23;988;-44
2022/04/17 01:36:50;;;;;;;;;;;;;;;;;;1288564;23;802;-44
2022/04/17 01:37:20;;;;;;;;;;;;;;;;;;1288086;23;909;-44
2022/04/17 01:37:50;;;;;;;;;;;;;;;;;;1287968;23;1101;-44
2022/04/17 01:38:21;;;;;;;;;;;;;;;;;;1287902;23;766;-44
2022/04/17 01:38:51;;;;;;;;;;;;;;;;;;1288314;23;908;-47
2022/04/17 01:39:22;;;;;;;;;;;;;;;;;;1287839;23;1187;-45
2022/04/17 01:39:52;;;;;;;;;;;;;;;;;;1288594;23;1610;-42
2022/04/17 01:40:24;;;;;;;;;;;;;;;;;;1288184;23;1936;-43
2022/04/17 01:40:54;;;;;;;;;;;;;;;;;;1288702;23;830;-45
2022/04/17 01:41:25;;;;;;;;;;;;;;;;;;1287036;23;1478;-46
2022/04/17 01:41:56;;;;;;;;;;;;;;;;;;1288735;23;910;-43
2022/04/17 01:42:26;;;;;;;;;;;;;;;;;;1288285;23;964;-44
2022/04/17 01:42:56;;;;;;;;;;;;;;;;;;1288540;23;936;-45
2022/04/17 01:43:27;;;;;;;;;;;;;;;;;;1288376;23;897;-45
2022/04/17 01:43:57;;;;;;;;;;;;;;;;;;1288450;23;750;-44
2022/04/17 01:44:28;;;;;;;;;;;;;;;;;;1288451;23;913;-44
2022/04/17 01:44:59;;;;;;;;;;;;;;;;;;1288166;23;813;-44
2022/04/17 01:45:31;;;;;;;;;;;;;;;;;;1288449;23;944;-44
2022/04/17 01:46:01;;;;;;;;;;;;;;;;;;1288433;23;914;-44
2022/04/17 01:46:31;;;;;;;;;;;;;;;;;;1286800;23;982;-44
2022/04/17 01:47:05;;;;;;;;;;;;;;;;;;1288485;23;845;-45
2022/04/17 01:47:35;;;;;;;;;;;;;;;;;;1288641;23;837;-41
2022/04/17 01:48:05;;;;;;;;;;;;;;;;;;1288436;23;818;-44
2022/04/17 01:48:36;;;;;;;;;;;;;;;;;;1288552;23;869;-42
2022/04/17 01:49:06;;;;;;;;;;;;;;;;;;1288408;23;786;-44
2022/04/17 01:49:36;;;;;;;;;;;;;;;;;;1288396;23;906;-44
2022/04/17 01:50:07;;;;;;;;;;;;;;;;;;1288365;23;925;-44
2022/04/17 01:50:37;;;;;;;;;;;;;;;;;;1288759;23;794;-45
2022/04/17 01:51:07;;;;;;;;;;;;;;;;;;1288337;23;1064;-44
2022/04/17 01:51:38;;;;;;;;;;;;;;;;;;1288549;23;903;-44
2022/04/17 01:52:11;;;;;;;;;;;;;;;;;;1287775;23;947;-43
2022/04/17 01:52:42;;;;;;;;;;;;;;;;;;1288477;23;826;-43
2022/04/17 01:53:12;;;;;;;;;;;;;;;;;;1288444;22;1259;-44
2022/04/17 01:53:42;;;;;;;;;;;;;;;;;;1288332;23;912;-43
2022/04/17 01:54:16;;;;;;;;;;;;;;;;;;1288448;23;881;-46
2022/04/17 01:54:46;;;;;;;;;;;;;;;;;;1288613;23;936;-44
2022/04/17 01:55:18;;;;;;;;;;;;;;;;;;1288381;23;964;-44
2022/04/17 01:55:55;;;;;;;;;;;;;;;;;;1288502;23;813;-42
2022/04/17 01:56:25;;;;;;;;;;;;;;;;;;1287978;23;1011;-44
2022/04/17 01:56:56;;;;;;;;;;;;;;;;;;1288610;23;832;-43
2022/04/17 01:57:27;;;;;;;;;;;;;;;;;;1288435;23;837;-44
2022/04/17 01:57:57;;;;;;;;;;;;;;;;;;1288276;23;885;-45
2022/04/17 01:58:27;;;;;;;;;;;;;;;;;;1288578;23;825;-44
2022/04/17 01:59:01;;;;;;;;;;;;;;;;;;1288356;23;876;-43
2022/04/17 01:59:31;;;;;;;;;;;;;;;;;;1286765;23;964;-44
2022/04/17 02:00:02;;;;;;;;;;;;;;;;;;1288130;23;916;-43
2022/04/17 02:00:35;;;;;;;;;;;;;;;;;;1288584;23;640;-44
2022/04/17 02:01:08;;;;;;;;;;;;;;;;;;1288312;23;869;-44
2022/04/17 02:01:42;;;;;;;;;;;;;;;;;;1288516;23;777;-44
2022/04/17 02:02:12;;;;;;;;;;;;;;;;;;1288197;23;865;-43
2022/04/17 02:02:42;;;;;;;;;;;;;;;;;;1288192;23;1011;-45
2022/04/17 02:03:13;;;;;;;;;;;;;;;;;;1288082;23;961;-43
2022/04/17 02:03:43;;;;;;;;;;;;;;;;;;1288667;23;778;-44
2022/04/17 02:04:14;;;;;;;;;;;;;;;;;;1288102;23;1116;-43
2022/04/17 02:04:44;;;;;;;;;;;;;;;;;;1288719;23;866;-44
2022/04/17 02:05:16;;;;;;;;;;;;;;;;;;1288532;23;905;-44
2022/04/17 02:05:46;;;;;;;;;;;;;;;;;;1288363;23;881;-44
2022/04/17 02:06:17;;;;;;;;;;;;;;;;;;1288375;23;885;-44
2022/04/17 02:06:47;;;;;;;;;;;;;;;;;;1288385;23;1124;-45
2022/04/17 02:07:18;;;;;;;;;;;;;;;;;;1287999;23;928;-43
2022/04/17 02:07:48;;;;;;;;;;;;;;;;;;1288456;23;869;-44
2022/04/17 02:08:18;;;;;;;;;;;;;;;;;;1288209;23;885;-45
2022/04/17 02:08:51;;;;;;;;;;;;;;;;;;1288407;23;1044;-43
2022/04/17 02:09:24;;;;;;;;;;;;;;;;;;1288345;23;813;-44
2022/04/17 02:09:57;;;;;;;;;;;;;;;;;;1288552;23;1016;-45
2022/04/17 02:10:27;;;;;;;;;;;;;;;;;;1288606;23;826;-43
2022/04/17 02:10:58;;;;;;;;;;;;;;;;;;1288237;23;880;-44
2022/04/17 02:11:31;;;;;;;;;;;;;;;;;;1288500;23;924;-45
2022/04/17 02:12:01;;;;;;;;;;;;;;;;;;1288485;23;924;-44
2022/04/17 02:12:33;;;;;;;;;;;;;;;;;;1288638;23;833;-45
2022/04/17 02:13:04;;;;;;;;;;;;;;;;;;1288530;23;834;-44
2022/04/17 02:13:34;;;;;;;;;;;;;;;;;;1288453;23;900;-46
2022/04/17 02:14:06;;;;;;;;;;;;;;;;;;1288317;23;901;-45
2022/04/17 02:14:36;;;;;;;;;;;;;;;;;;1288061;23;921;-44
2022/04/17 02:15:06;;;;;;;;;;;;;;;;;;1288290;23;877;-44
2022/04/17 02:15:37;;;;;;;;;;;;;;;;;;1288658;23;920;-44
2022/04/17 02:16:07;;;;;;;;;;;;;;;;;;1288058;23;798;-45
2022/04/17 02:16:38;;;;;;;;;;;;;;;;;;1288596;23;927;-44
2022/04/17 02:17:08;;;;;;;;;;;;;;;;;;1288186;23;829;-44
2022/04/17 02:17:38;;;;;;;;;;;;;;;;;;1281659;23;1217;-44
2022/04/17 02:18:09;;;;;;;;;;;;;;;;;;1281525;23;861;-45
2022/04/17 02:18:39;;;;;;;;;;;;;;;;;;1281920;23;872;-44
2022/04/17 02:19:10;;;;;;;;;;;;;;;;;;1281740;23;975;-44
2022/04/17 02:19:43;;;;;;;;;;;;;;;;;;1288689;23;881;-46
2022/04/17 02:20:13;;;;;;;;;;;;;;;;;;1288011;23;1928;-44
2022/04/17 02:20:44;;;;;;;;;;;;;;;;;;1288686;23;770;-42
2022/04/17 02:21:14;;;;;;;;;;;;;;;;;;1288276;23;786;-43
2022/04/17 02:21:45;;;;;;;;;;;;;;;;;;1288071;23;833;-45
2022/04/17 02:22:15;;;;;;;;;;;;;;;;;;1288152;23;930;-45
2022/04/17 02:22:45;;;;;;;;;;;;;;;;;;1288329;23;869;-46
2022/04/17 02:23:16;;;;;;;;;;;;;;;;;;1288441;23;948;-44
2022/04/17 02:23:46;;;;;;;;;;;;;;;;;;1288558;23;889;-45
2022/04/17 02:24:17;;;;;;;;;;;;;;;;;;1288196;23;833;-45
2022/04/17 02:24:47;;;;;;;;;;;;;;;;;;1288578;23;868;-44
2022/04/17 02:25:20;;;;;;;;;;;;;;;;;;1288283;23;924;-46
2022/04/17 02:25:50;;;;;;;;;;;;;;;;;;1288673;23;731;-44
2022/04/17 02:26:21;;;;;;;;;;;;;;;;;;1288244;23;928;-45
2022/04/17 02:26:51;;;;;;;;;;;;;;;;;;1288573;23;892;-44
2022/04/17 02:27:21;;;;;;;;;;;;;;;;;;1288377;23;778;-44
2022/04/17 02:27:52;;;;;;;;;;;;;;;;;;1288550;23;900;-44
2022/04/17 02:28:22;;;;;;;;;;;;;;;;;;1288258;23;749;-45
2022/04/17 02:28:56;;;;;;;;;;;;;;;;;;1288545;23;944;-43
2022/04/17 02:29:26;;;;;;;;;;;;;;;;;;1287787;23;940;-44
2022/04/17 02:29:56;;;;;;;;;;;;;;;;;;1288635;23;766;-44
2022/04/17 02:30:26;;;;;;;;;;;;;;;;;;1288254;23;945;-46
2022/04/17 02:30:57;;;;;;;;;;;;;;;;;;1288230;23;864;-44
2022/04/17 02:31:27;;;;;;;;;;;;;;;;;;1281682;23;1225;-44
2022/04/17 02:31:58;;;;;;;;;;;;;;;;;;1281751;23;994;-44
2022/04/17 02:32:30;;;;;;;;;;;;;;;;;;1281187;23;1099;-44
2022/04/17 02:33:00;;;;;;;;;;;;;;;;;;1281461;23;1005;-45
2022/04/17 02:33:30;;;;;;;;;;;;;;;;;;1288379;23;1589;-44
2022/04/17 02:34:01;;;;;;;;;;;;;;;;;;1288369;23;908;-44
2022/04/17 02:34:31;;;;;;;;;;;;;;;;;;1288398;23;940;-43
2022/04/17 02:35:02;;;;;;;;;;;;;;;;;;1288573;23;881;-44
2022/04/17 02:35:32;;;;;;;;;;;;;;;;;;1288507;23;948;-44
2022/04/17 02:36:02;;;;;;;;;;;;;;;;;;1288233;23;806;-44
2022/04/17 02:36:36;;;;;;;;;;;;;;;;;;1287987;23;838;-48
2022/04/17 02:37:06;;;;;;;;;;;;;;;;;;1288058;23;936;-45
2022/04/17 02:37:37;;;;;;;;;;;;;;;;;;1288380;23;841;-45
2022/04/17 02:38:07;;;;;;;;;;;;;;;;;;1288268;23;929;-43
2022/04/17 02:38:37;;;;;;;;;;;;;;;;;;1288587;23;944;-44
2022/04/17 02:39:10;;;;;;;;;;;;;;;;;;1288387;23;798;-43
2022/04/17 02:39:41;;;;;;;;;;;;;;;;;;1288605;23;1222;-44
2022/04/17 02:40:11;;;;;;;;;;;;;;;;;;1288707;23;1932;-45
2022/04/17 02:40:42;;;;;;;;;;;;;;;;;;1288978;23;913;-45
2022/04/17 02:41:12;;;;;;;;;;;;;;;;;;1288795;23;932;-43
2022/04/17 02:41:42;;;;;;;;;;;;;;;;;;1288894;23;853;-44
2022/04/17 02:42:13;;;;;;;;;;;;;;;;;;1288785;23;789;-44
2022/04/17 02:42:43;;;;;;;;;;;;;;;;;;1288801;23;848;-44
2022/04/17 02:43:14;;;;;;;;;;;;;;;;;;1288790;23;972;-44
2022/04/17 02:43:44;;;;;;;;;;;;;;;;;;1288979;23;801;-44
2022/04/17 02:44:15;;;;;;;;;;;;;;;;;;1288270;23;874;-44
2022/04/17 02:44:45;;;;;;;;;;;;;;;;;;1288963;23;838;-44
2022/04/17 02:45:17;;;;;;;;;;;;;;;;;;1288526;23;1103;-44
2022/04/17 02:45:49;;;;;;;;;;;;;;;;;;1289017;23;765;-44
2022/04/17 02:47:57;;;;;;;;;;;;;;;;;;1288603;23;936;-44
2022/04/17 02:48:28;;;;;;;;;;;;;;;;;;1288972;23;746;-44
2022/04/17 02:48:58;;;;;;;;;;;;;;;;;;1288805;23;853;-44
2022/04/17 02:49:28;;;;;;;;;;;;;;;;;;1288936;23;900;-44
2022/04/17 02:49:59;;;;;;;;;;;;;;;;;;1288855;23;900;-44
2022/04/17 02:50:29;;;;;;;;;;;;;;;;;;1289035;23;841;-43
2022/04/17 02:51:00;;;;;;;;;;;;;;;;;;1288753;23;825;-44
2022/04/17 02:51:30;;;;;;;;;;;;;;;;;;1288595;23;793;-44
2022/04/17 02:52:00;;;;;;;;;;;;;;;;;;1288701;23;917;-44
2022/04/17 02:52:31;;;;;;;;;;;;;;;;;;1288948;23;901;-42
2022/04/17 02:53:01;;;;;;;;;;;;;;;;;;1288583;22;1246;-44
2022/04/17 02:53:32;;;;;;;;;;;;;;;;;;1288578;23;944;-44
2022/04/17 02:54:02;;;;;;;;;;;;;;;;;;1288379;23;809;-44
2022/04/17 02:54:33;;;;;;;;;;;;;;;;;;1288449;23;913;-43
2022/04/17 02:55:04;;;;;;;;;;;;;;;;;;1288237;23;1147;-44
2022/04/17 02:55:34;;;;;;;;;;;;;;;;;;1289078;23;897;-44
2022/04/17 02:56:05;;;;;;;;;;;;;;;;;;1288555;23;810;-44
2022/04/17 02:56:35;;;;;;;;;;;;;;;;;;1287869;23;1155;-44
2022/04/17 02:57:05;;;;;;;;;;;;;;;;;;1288633;23;777;-45
2022/04/17 02:57:36;;;;;;;;;;;;;;;;;;1288878;23;957;-42
2022/04/17 02:58:06;;;;;;;;;;;;;;;;;;1288546;23;889;-42
2022/04/17 02:58:37;;;;;;;;;;;;;;;;;;1289124;23;873;-44
2022/04/17 02:59:07;;;;;;;;;;;;;;;;;;1288325;23;823;-46
2022/04/17 02:59:38;;;;;;;;;;;;;;;;;;1289123;23;893;-44
2022/04/17 03:00:08;;;;;;;;;;;;;;;;;;1288636;23;1960;-42
2022/04/17 03:05:36;;;;;;;;;;;;;;;;;;1289160;23;868;-44
2022/04/17 03:05:38;;;;;;;;;;;;;;;;;;1289147;23;889;-44
2022/04/17 03:06:10;;;;;;;;;;;;;;;;;;1287985;23;857;-46
2022/04/17 03:06:41;;;;;;;;;;;;;;;;;;1289094;23;947;-44
2022/04/17 03:07:11;;;;;;;;;;;;;;;;;;1281721;23;1362;-44
2022/04/17 03:07:41;;;;;;;;;;;;;;;;;;1282248;23;916;-45
2022/04/17 03:08:13;;;;;;;;;;;;;;;;;;1281859;23;909;-44
2022/04/17 03:08:43;;;;;;;;;;;;;;;;;;1282142;23;937;-44
2022/04/17 03:09:14;;;;;;;;;;;;;;;;;;1282347;23;821;-43
2022/04/17 03:09:44;;;;;;;;;;;;;;;;;;1288941;23;886;-44
2022/04/17 03:10:15;;;;;;;;;;;;;;;;;;1288676;23;770;-44
2022/04/17 03:10:48;;;;;;;;;;;;;;;;;;1288862;23;853;-43
2022/04/17 03:11:18;;;;;;;;;;;;;;;;;;1288887;23;976;-44
2022/04/17 03:11:49;;;;;;;;;;;;;;;;;;1288745;23;960;-42
2022/04/17 03:12:19;;;;;;;;;;;;;;;;;;1288941;23;885;-44
2022/04/17 03:12:52;;;;;;;;;;;;;;;;;;1288702;23;782;-44
2022/04/17 03:13:22;;;;;;;;;;;;;;;;;;1288871;23;981;-44
2022/04/17 03:13:53;;;;;;;;;;;;;;;;;;1288388;23;825;-44
2022/04/17 03:14:24;;;;;;;;;;;;;;;;;;1288779;23;881;-45
2022/04/17 03:14:54;;;;;;;;;;;;;;;;;;1289148;23;912;-44
2022/04/17 03:15:31;;;;;;;;;;;;;;;;;;1288747;23;818;-44
2022/04/17 03:16:02;;;;;;;;;;;;;;;;;;1288681;23;955;-44
2022/04/17 03:16:32;;;;;;;;;;;;;;;;;;1289126;23;853;-44
2022/04/17 03:17:04;;;;;;;;;;;;;;;;;;1288478;23;884;-44
2022/04/17 03:17:36;;;;;;;;;;;;;;;;;;1289328;23;802;-43
2022/04/17 03:18:08;;;;;;;;;;;;;;;;;;1288445;23;758;-44
2022/04/17 03:18:38;;;;;;;;;;;;;;;;;;1289316;23;940;-44
2022/04/17 03:19:09;;;;;;;;;;;;;;;;;;1288510;23;782;-44
2022/04/17 03:19:40;;;;;;;;;;;;;;;;;;1288906;23;929;-44
2022/04/17 03:20:10;;;;;;;;;;;;;;;;;;1288428;23;1947;-43
2022/04/17 03:20:40;;;;;;;;;;;;;;;;;;1289144;23;801;-44
2022/04/17 03:21:11;;;;;;;;;;;;;;;;;;1287891;23;928;-45
2022/04/17 03:21:41;;;;;;;;;;;;;;;;;;1289216;23;871;-43
2022/04/17 03:22:12;;;;;;;;;;;;;;;;;;1288365;23;789;-45
2022/04/17 03:22:42;;;;;;;;;;;;;;;;;;1289177;23;984;-44
2022/04/17 03:23:14;;;;;;;;;;;;;;;;;;1288595;23;901;-44
2022/04/17 03:23:44;;;;;;;;;;;;;;;;;;1289097;23;948;-44
2022/04/17 03:24:15;;;;;;;;;;;;;;;;;;1288566;23;801;-44
2022/04/17 03:24:46;;;;;;;;;;;;;;;;;;1288994;23;896;-44
2022/04/17 03:25:16;;;;;;;;;;;;;;;;;;1288441;23;1008;-44
2022/04/17 03:25:46;;;;;;;;;;;;;;;;;;1289134;23;873;-45
2022/04/17 03:26:17;;;;;;;;;;;;;;;;;;1288401;23;866;-44
2022/04/17 03:26:47;;;;;;;;;;;;;;;;;;1288955;23;865;-44
2022/04/17 03:27:18;;;;;;;;;;;;;;;;;;1288714;23;848;-44
2022/04/17 03:27:49;;;;;;;;;;;;;;;;;;1289074;23;900;-44
2022/04/17 03:28:19;;;;;;;;;;;;;;;;;;1288164;23;1014;-43
2022/04/17 03:28:54;;;;;;;;;;;;;;;;;;1288907;23;949;-44
2022/04/17 03:29:24;;;;;;;;;;;;;;;;;;1288587;23;782;-44
2022/04/17 03:29:54;;;;;;;;;;;;;;;;;;1289052;23;909;-44
2022/04/17 03:30:25;;;;;;;;;;;;;;;;;;1288421;23;1149;-45
2022/04/17 03:30:55;;;;;;;;;;;;;;;;;;1288994;23;816;-45
2022/04/17 03:31:25;;;;;;;;;;;;;;;;;;1288630;23;949;-45
2022/04/17 03:31:56;;;;;;;;;;;;;;;;;;1288946;23;829;-43
2022/04/17 03:32:31;;;;;;;;;;;;;;;;;;1288735;23;953;-44
2022/04/17 03:33:05;;;;;;;;;;;;;;;;;;1288684;23;912;-44
2022/04/17 03:33:35;;;;;;;;;;;;;;;;;;1288417;23;882;-44
2022/04/17 03:34:08;;;;;;;;;;;;;;;;;;1288465;23;1116;-44
2022/04/17 03:34:38;;;;;;;;;;;;;;;;;;1288995;23;802;-43
2022/04/17 03:35:09;;;;;;;;;;;;;;;;;;1288005;23;1025;-44
2022/04/17 03:35:43;;;;;;;;;;;;;;;;;;1288800;23;881;-44
2022/04/17 03:36:13;;;;;;;;;;;;;;;;;;1288312;23;794;-44
2022/04/17 03:36:44;;;;;;;;;;;;;;;;;;1289014;23;920;-45
2022/04/17 03:37:15;;;;;;;;;;;;;;;;;;1288611;23;853;-45
2022/04/17 03:37:45;;;;;;;;;;;;;;;;;;1288971;23;1622;-46
2022/04/17 03:38:16;;;;;;;;;;;;;;;;;;1288439;23;1211;-44
2022/04/17 03:38:55;;;;;;;;;;;;;;;;;;1288779;23;1245;-43
2022/04/17 03:39:25;;;;;;;;;;;;;;;;;;1288387;23;1173;-45
2022/04/17 03:39:56;;;;;;;;;;;;;;;;;;1289181;23;995;-45
2022/04/17 03:40:26;;;;;;;;;;;;;;;;;;1288470;23;1908;-46
2022/04/17 03:40:59;;;;;;;;;;;;;;;;;;1288755;23;830;-45
2022/04/17 03:41:30;;;;;;;;;;;;;;;;;;1288866;23;750;-45
2022/04/17 03:42:00;;;;;;;;;;;;;;;;;;1288518;23;901;-46
2022/04/17 03:42:31;;;;;;;;;;;;;;;;;;1288794;23;770;-45
2022/04/17 03:43:02;;;;;;;;;;;;;;;;;;1288823;23;832;-44
2022/04/17 03:43:35;;;;;;;;;;;;;;;;;;1288301;23;905;-45
2022/04/17 03:44:05;;;;;;;;;;;;;;;;;;1288516;23;972;-44
2022/04/17 03:44:36;;;;;;;;;;;;;;;;;;1288863;23;878;-43
2022/04/17 03:45:07;;;;;;;;;;;;;;;;;;1288413;23;874;-44
2022/04/17 03:45:38;;;;;;;;;;;;;;;;;;1289028;23;924;-44
2022/04/17 03:46:10;;;;;;;;;;;;;;;;;;1288248;23;921;-43
2022/04/17 03:46:41;;;;;;;;;;;;;;;;;;1289044;23;879;-44
2022/04/17 03:47:11;;;;;;;;;;;;;;;;;;1288576;23;774;-43
2022/04/17 03:47:42;;;;;;;;;;;;;;;;;;1288936;23;873;-44
2022/04/17 03:48:14;;;;;;;;;;;;;;;;;;1288416;23;845;-43